King Salmon, AK

8:01 PM AKDT on July 10, 2014 (GMT -0800)
Port Heiden (PAPH) Elev 95 ft | 56.96 °N, 158.63 °W | Change Station

Current weather conditions updated 5 minutes ago

Overcast
Overcast
52 °F
Feels Like 52 °F
N
16
Wind Variable Wind from West

Tomorrow is forecast to be nearly the same temperature as today. Chance of showers.

Today
High -- | Low -- °F
--% Chance of Precip.
Yesterday
High -- | Low -- °F
Precip. -- in
5:55 AM 11:23 PM
Waxing Gibbous, 97% visible
Pressure 29.66 in
Visibility 10.0 miles
Clouds Scattered Clouds 1000 ft
Overcast 3900 ft
Dew Point 45 °F
Humidity 76%
Rainfall 0.07 in
Snow Depth Not available.
UV 1 out of 12
Pollen Not available.
Air Quality Not available.
Flu Activity Sporadic
METAR PAPH 110356Z AUTO 27014KT 10SM SCT010 OVC039 11/07 A2966 RMK AO1

More Conditions Fewer Conditions

Pressure 29.66 in
Visibility 10.0 miles
Clouds Scattered Clouds 1000 ft
Overcast 3900 ft
Dew Point 45 °F
Humidity 76%
Rainfall 0.07 in
Snow Depth Not available.
UV 1 out of 12
Pollen Not available.
Air Quality Not available.
Flu Activity Sporadic
METAR PAPH 110356Z AUTO 27014KT 10SM SCT010 OVC039 11/07 A2966 RMK AO1

More Conditions Fewer Conditions

10-Day Weather Forecast

Almanac

Astronomy

Jul. 10, 2014 Rise Set
Actual Time 5:55 AM AKDT 11:23 PM AKDT
Civil Twilight 4:53 AM AKDT 12:25 AM AKDT
Nautical Twilight 3:12 AM AKDT 2:07 AM AKDT
Astronomical Twilight Sun does not rise Sun does not rise
Moon 9:32 PM AKDT (7/10) 4:33 AM AKDT (7/10)
Length of Visible Light 19h 31m
Length of Day
17h 27m
Tomorrow will be 2m 32s shorter.
Waxing Gibbous, 97% of the Moon is Illuminated
Jul 11
Waxing Gibbous
Jul 12
Full
Jul 18
Last Quarter
Jul 26
New
Aug 3
First Quarter

Today's Extremes

State Highs State Lows

Community

WunderPhotos

Upload Photos

1,732,389 photos uploaded!

Nearby

Snow Depth

Station Depth Elevation
Port Graham 0 in 300 ft
Mcneil Canyon 1 in 1320 ft
MF Bradley River 22 in 2300 ft
Nuka Glacier 0 in 1250 ft
Cooper Lake 19 in 1200 ft

Earthquake Activity

City Distance Mag. Time & Date
No recent earthquake activity has been reported nearby.
Minimum magnitude displayed is 2.5.

Coastal Water Temperatures

Place Temperature
No Stations Reporting

Nearby Weather Stations

There are no personal weather stations in this area.